sensor_id;sensor_type;location;lat;lon;timestamp;pressure;altitude;pressure_sealevel;temperature
70333;BMP280;57747;43.548;-5.704;2022-07-17T00:02:28;101521.75;;;21.39
70333;BMP280;57747;43.548;-5.704;2022-07-17T00:04:54;101509.81;;;21.31
70333;BMP280;57747;43.548;-5.704;2022-07-17T00:07:22;101510.88;;;21.18
70333;BMP280;57747;43.548;-5.704;2022-07-17T00:09:53;101505.06;;;21.07
70333;BMP280;57747;43.548;-5.704;2022-07-17T00:12:22;101518.28;;;21.17
70333;BMP280;57747;43.548;-5.704;2022-07-17T00:14:50;101514.78;;;20.96
70333;BMP280;57747;43.548;-5.704;2022-07-17T00:17:21;101502.06;;;21.00
70333;BMP280;57747;43.548;-5.704;2022-07-17T00:19:50;101504.53;;;20.93
70333;BMP280;57747;43.548;-5.704;2022-07-17T00:22:15;101513.75;;;21.00
70333;BMP280;57747;43.548;-5.704;2022-07-17T00:24:45;101517.75;;;21.03
70333;BMP280;57747;43.548;-5.704;2022-07-17T00:27:13;101511.31;;;20.87
70333;BMP280;57747;43.548;-5.704;2022-07-17T00:29:41;101508.19;;;20.76
70333;BMP280;57747;43.548;-5.704;2022-07-17T00:32:10;101504.09;;;20.70
70333;BMP280;57747;43.548;-5.704;2022-07-17T00:34:40;101508.19;;;20.76
70333;BMP280;57747;43.548;-5.704;2022-07-17T00:37:05;101494.81;;;20.83
70333;BMP280;57747;43.548;-5.704;2022-07-17T00:39:34;101484.28;;;20.81
70333;BMP280;57747;43.548;-5.704;2022-07-17T00:42:04;101467.84;;;20.69
70333;BMP280;57747;43.548;-5.704;2022-07-17T00:44:31;101475.22;;;20.90
70333;BMP280;57747;43.548;-5.704;2022-07-17T00:46:59;101466.09;;;21.07
70333;BMP280;57747;43.548;-5.704;2022-07-17T00:49:24;101474.97;;;21.03
70333;BMP280;57747;43.548;-5.704;2022-07-17T00:51:52;101462.03;;;20.92
70333;BMP280;57747;43.548;-5.704;2022-07-17T00:54:18;101473.63;;;20.89
70333;BMP280;57747;43.548;-5.704;2022-07-17T00:56:45;101475.47;;;20.97
70333;BMP280;57747;43.548;-5.704;2022-07-17T01:01:50;101478.75;;;20.69
70333;BMP280;57747;43.548;-5.704;2022-07-17T01:04:18;101469.44;;;20.70
70333;BMP280;57747;43.548;-5.704;2022-07-17T01:06:46;101464.47;;;20.72
70333;BMP280;57747;43.548;-5.704;2022-07-17T01:09:11;101465.53;;;20.80
70333;BMP280;57747;43.548;-5.704;2022-07-17T01:11:36;101471.03;;;20.92
70333;BMP280;57747;43.548;-5.704;2022-07-17T01:14:04;101453.19;;;20.82
70333;BMP280;57747;43.548;-5.704;2022-07-17T01:16:32;101453.09;;;20.91
70333;BMP280;57747;43.548;-5.704;2022-07-17T01:19:00;101456.88;;;20.99
70333;BMP280;57747;43.548;-5.704;2022-07-17T01:21:25;101450.50;;;20.95
70333;BMP280;57747;43.548;-5.704;2022-07-17T01:24:07;101452.41;;;20.94
70333;BMP280;57747;43.548;-5.704;2022-07-17T01:26:33;101447.50;;;20.88
70333;BMP280;57747;43.548;-5.704;2022-07-17T01:29:03;101441.28;;;20.87
70333;BMP280;57747;43.548;-5.704;2022-07-17T01:31:31;101452.19;;;20.87
70333;BMP280;57747;43.548;-5.704;2022-07-17T01:33:59;101443.84;;;20.83
70333;BMP280;57747;43.548;-5.704;2022-07-17T01:36:25;101448.72;;;20.78
70333;BMP280;57747;43.548;-5.704;2022-07-17T01:38:51;101442.59;;;20.81
70333;BMP280;57747;43.548;-5.704;2022-07-17T01:41:16;101444.00;;;20.87
70333;BMP280;57747;43.548;-5.704;2022-07-17T01:43:44;101445.91;;;20.87
70333;BMP280;57747;43.548;-5.704;2022-07-17T01:46:13;101440.66;;;20.81
70333;BMP280;57747;43.548;-5.704;2022-07-17T01:48:41;101443.28;;;20.78
70333;BMP280;57747;43.548;-5.704;2022-07-17T01:51:12;101440.00;;;20.84
70333;BMP280;57747;43.548;-5.704;2022-07-17T01:53:37;101440.78;;;20.85
70333;BMP280;57747;43.548;-5.704;2022-07-17T01:56:05;101436.66;;;20.79
70333;BMP280;57747;43.548;-5.704;2022-07-17T01:58:30;101442.41;;;20.86
70333;BMP280;57747;43.548;-5.704;2022-07-17T02:00:58;101445.56;;;20.88
70333;BMP280;57747;43.548;-5.704;2022-07-17T02:03:25;101442.53;;;20.90
70333;BMP280;57747;43.548;-5.704;2022-07-17T02:05:50;101444.03;;;20.99
70333;BMP280;57747;43.548;-5.704;2022-07-17T02:08:16;101441.19;;;20.96
70333;BMP280;57747;43.548;-5.704;2022-07-17T02:10:44;101425.97;;;20.95
70333;BMP280;57747;43.548;-5.704;2022-07-17T02:13:10;101419.84;;;20.98
70333;BMP280;57747;43.548;-5.704;2022-07-17T02:15:37;101416.13;;;21.02
70333;BMP280;57747;43.548;-5.704;2022-07-17T02:18:08;101422.28;;;21.12
70333;BMP280;57747;43.548;-5.704;2022-07-17T02:20:34;101417.88;;;21.19
70333;BMP280;57747;43.548;-5.704;2022-07-17T02:22:59;101424.78;;;21.29
70333;BMP280;57747;43.548;-5.704;2022-07-17T02:25:25;101420.50;;;21.28
70333;BMP280;57747;43.548;-5.704;2022-07-17T02:27:53;101430.69;;;21.19
70333;BMP280;57747;43.548;-5.704;2022-07-17T02:30:18;101425.97;;;20.95
70333;BMP280;57747;43.548;-5.704;2022-07-17T02:32:47;101420.53;;;20.95
70333;BMP280;57747;43.548;-5.704;2022-07-17T02:35:12;101423.69;;;20.97
70333;BMP280;57747;43.548;-5.704;2022-07-17T02:37:38;101414.13;;;20.78
70333;BMP280;57747;43.548;-5.704;2022-07-17T02:40:07;101425.00;;;20.78
70333;BMP280;57747;43.548;-5.704;2022-07-17T02:42:32;101419.69;;;20.61
70333;BMP280;57747;43.548;-5.704;2022-07-17T02:44:58;101426.63;;;20.71
70333;BMP280;57747;43.548;-5.704;2022-07-17T02:49:52;101421.22;;;20.50
70333;BMP280;57747;43.548;-5.704;2022-07-17T02:52:18;101412.16;;;20.58
70333;BMP280;57747;43.548;-5.704;2022-07-17T02:54:44;101411.09;;;20.50
70333;BMP280;57747;43.548;-5.704;2022-07-17T02:57:09;101407.13;;;20.26
70333;BMP280;57747;43.548;-5.704;2022-07-17T02:59:35;101411.97;;;20.42
70333;BMP280;57747;43.548;-5.704;2022-07-17T03:02:00;101411.44;;;20.48
70333;BMP280;57747;43.548;-5.704;2022-07-17T03:04:28;101401.56;;;20.14
70333;BMP280;57747;43.548;-5.704;2022-07-17T03:06:54;101395.16;;;20.19
70333;BMP280;57747;43.548;-5.704;2022-07-17T03:09:25;101405.16;;;20.27
70333;BMP280;57747;43.548;-5.704;2022-07-17T03:11:51;101397.31;;;20.04
70333;BMP280;57747;43.548;-5.704;2022-07-17T03:14:16;101401.38;;;20.19
70333;BMP280;57747;43.548;-5.704;2022-07-17T03:16:42;101400.75;;;20.22
70333;BMP280;57747;43.548;-5.704;2022-07-17T03:19:10;101401.25;;;20.16
70333;BMP280;57747;43.548;-5.704;2022-07-17T03:21:35;101402.19;;;20.20
70333;BMP280;57747;43.548;-5.704;2022-07-17T03:24:01;101392.84;;;20.08
70333;BMP280;57747;43.548;-5.704;2022-07-17T03:26:26;101388.56;;;19.99
70333;BMP280;57747;43.548;-5.704;2022-07-17T03:28:51;101391.66;;;20.09
70333;BMP280;57747;43.548;-5.704;2022-07-17T03:31:17;101382.47;;;19.93
70333;BMP280;57747;43.548;-5.704;2022-07-17T03:33:42;101379.91;;;19.97
70333;BMP280;57747;43.548;-5.704;2022-07-17T03:36:08;101381.78;;;20.05
70333;BMP280;57747;43.548;-5.704;2022-07-17T03:38:33;101380.88;;;19.92
70333;BMP280;57747;43.548;-5.704;2022-07-17T03:40:58;101385.38;;;19.88
70333;BMP280;57747;43.548;-5.704;2022-07-17T03:43:24;101380.38;;;19.99
70333;BMP280;57747;43.548;-5.704;2022-07-17T03:45:49;101389.44;;;20.12
70333;BMP280;57747;43.548;-5.704;2022-07-17T03:48:15;101384.41;;;20.22
70333;BMP280;57747;43.548;-5.704;2022-07-17T03:50:40;101386.03;;;20.36
70333;BMP280;57747;43.548;-5.704;2022-07-17T03:53:11;101381.81;;;20.47
70333;BMP280;57747;43.548;-5.704;2022-07-17T03:55:39;101378.91;;;20.52
70333;BMP280;57747;43.548;-5.704;2022-07-17T03:58:09;101374.72;;;20.55
70333;BMP280;57747;43.548;-5.704;2022-07-17T04:00:35;101376.13;;;20.61
70333;BMP280;57747;43.548;-5.704;2022-07-17T04:03:00;101375.75;;;20.62
70333;BMP280;57747;43.548;-5.704;2022-07-17T04:05:25;101366.94;;;20.65
70333;BMP280;57747;43.548;-5.704;2022-07-17T04:07:51;101371.22;;;20.66
70333;BMP280;57747;43.548;-5.704;2022-07-17T04:10:20;101363.88;;;20.67
70333;BMP280;57747;43.548;-5.704;2022-07-17T04:12:46;101361.47;;;20.65
70333;BMP280;57747;43.548;-5.704;2022-07-17T04:15:15;101370.44;;;20.66
70333;BMP280;57747;43.548;-5.704;2022-07-17T04:18:00;101360.13;;;20.72
70333;BMP280;57747;43.548;-5.704;2022-07-17T04:20:26;101357.88;;;20.74
70333;BMP280;57747;43.548;-5.704;2022-07-17T04:22:53;101355.00;;;20.70
70333;BMP280;57747;43.548;-5.704;2022-07-17T04:25:19;101362.13;;;20.62
70333;BMP280;57747;43.548;-5.704;2022-07-17T04:27:44;101365.16;;;20.70
70333;BMP280;57747;43.548;-5.704;2022-07-17T04:30:12;101351.81;;;20.68
70333;BMP280;57747;43.548;-5.704;2022-07-17T04:32:38;101363.19;;;20.70
70333;BMP280;57747;43.548;-5.704;2022-07-17T04:35:03;101358.44;;;20.67
70333;BMP280;57747;43.548;-5.704;2022-07-17T04:37:31;101353.72;;;20.55
70333;BMP280;57747;43.548;-5.704;2022-07-17T04:39:56;101354.84;;;20.33
70333;BMP280;57747;43.548;-5.704;2022-07-17T04:42:21;101368.88;;;20.44
70333;BMP280;57747;43.548;-5.704;2022-07-17T04:44:52;101364.88;;;20.41
70333;BMP280;57747;43.548;-5.704;2022-07-17T04:47:20;101369.69;;;20.36
70333;BMP280;57747;43.548;-5.704;2022-07-17T04:49:45;101368.91;;;20.14
70333;BMP280;57747;43.548;-5.704;2022-07-17T04:52:14;101376.56;;;20.00
70333;BMP280;57747;43.548;-5.704;2022-07-17T04:54:39;101378.28;;;20.04
70333;BMP280;57747;43.548;-5.704;2022-07-17T04:57:04;101379.81;;;19.84
70333;BMP280;57747;43.548;-5.704;2022-07-17T04:59:30;101381.22;;;19.90
70333;BMP280;57747;43.548;-5.704;2022-07-17T05:01:55;101383.03;;;19.86
70333;BMP280;57747;43.548;-5.704;2022-07-17T05:04:20;101386.47;;;19.96
70333;BMP280;57747;43.548;-5.704;2022-07-17T05:06:49;101386.84;;;19.85
70333;BMP280;57747;43.548;-5.704;2022-07-17T05:09:14;101395.44;;;19.96
70333;BMP280;57747;43.548;-5.704;2022-07-17T05:11:42;101392.53;;;19.71
70333;BMP280;57747;43.548;-5.704;2022-07-17T05:14:10;101401.66;;;19.97
70333;BMP280;57747;43.548;-5.704;2022-07-17T05:16:36;101400.28;;;19.90
70333;BMP280;57747;43.548;-5.704;2022-07-17T05:19:01;101396.97;;;20.06
70333;BMP280;57747;43.548;-5.704;2022-07-17T05:21:26;101401.97;;;20.04
70333;BMP280;57747;43.548;-5.704;2022-07-17T05:23:52;101400.75;;;20.22
70333;BMP280;57747;43.548;-5.704;2022-07-17T05:26:17;101397.16;;;20.01
70333;BMP280;57747;43.548;-5.704;2022-07-17T05:28:43;101402.06;;;20.16
70333;BMP280;57747;43.548;-5.704;2022-07-17T05:31:08;101404.72;;;20.25
70333;BMP280;57747;43.548;-5.704;2022-07-17T05:33:33;101403.47;;;20.22
70333;BMP280;57747;43.548;-5.704;2022-07-17T05:35:59;101405.06;;;20.15
70333;BMP280;57747;43.548;-5.704;2022-07-17T05:38:25;101409.50;;;20.28
70333;BMP280;57747;43.548;-5.704;2022-07-17T05:40:50;101400.75;;;20.22
70333;BMP280;57747;43.548;-5.704;2022-07-17T05:43:15;101403.06;;;20.33
70333;BMP280;57747;43.548;-5.704;2022-07-17T05:45:41;101399.22;;;20.34
70333;BMP280;57747;43.548;-5.704;2022-07-17T05:48:06;101409.72;;;20.44
70333;BMP280;57747;43.548;-5.704;2022-07-17T05:50:32;101403.06;;;20.54
70333;BMP280;57747;43.548;-5.704;2022-07-17T05:52:58;101398.41;;;20.54
70333;BMP280;57747;43.548;-5.704;2022-07-17T05:55:23;101401.63;;;20.56
70333;BMP280;57747;43.548;-5.704;2022-07-17T05:57:49;101406.00;;;20.70
70333;BMP280;57747;43.548;-5.704;2022-07-17T06:00:17;101408.84;;;20.73
70333;BMP280;57747;43.548;-5.704;2022-07-17T06:02:43;101405.38;;;20.85
70333;BMP280;57747;43.548;-5.704;2022-07-17T06:05:09;101400.75;;;20.98
70333;BMP280;57747;43.548;-5.704;2022-07-17T06:07:35;101406.72;;;21.12
70333;BMP280;57747;43.548;-5.704;2022-07-17T06:10:02;101405.91;;;21.12
70333;BMP280;57747;43.548;-5.704;2022-07-17T06:12:27;101404.44;;;21.14
70333;BMP280;57747;43.548;-5.704;2022-07-17T06:14:53;101414.25;;;21.28
70333;BMP280;57747;43.548;-5.704;2022-07-17T06:17:21;101408.56;;;21.33
70333;BMP280;57747;43.548;-5.704;2022-07-17T06:19:47;101411.66;;;21.43
70333;BMP280;57747;43.548;-5.704;2022-07-17T06:22:17;101413.03;;;21.50
70333;BMP280;57747;43.548;-5.704;2022-07-17T06:24:43;101414.84;;;21.58
70333;BMP280;57747;43.548;-5.704;2022-07-17T06:27:11;101408.63;;;21.70
70333;BMP280;57747;43.548;-5.704;2022-07-17T06:29:37;101403.28;;;21.73
70333;BMP280;57747;43.548;-5.704;2022-07-17T06:32:05;101405.06;;;21.81
70333;BMP280;57747;43.548;-5.704;2022-07-17T06:34:34;101402.44;;;21.97
70333;BMP280;57747;43.548;-5.704;2022-07-17T06:36:59;101410.41;;;22.03
70333;BMP280;57747;43.548;-5.704;2022-07-17T06:39:25;101400.28;;;22.03
70333;BMP280;57747;43.548;-5.704;2022-07-17T06:41:54;101401.16;;;22.07
70333;BMP280;57747;43.548;-5.704;2022-07-17T06:44:19;101404.78;;;22.11
70333;BMP280;57747;43.548;-5.704;2022-07-17T06:46:45;101407.69;;;22.03
70333;BMP280;57747;43.548;-5.704;2022-07-17T06:49:10;101410.16;;;22.08
70333;BMP280;57747;43.548;-5.704;2022-07-17T06:51:36;101407.53;;;21.99
70333;BMP280;57747;43.548;-5.704;2022-07-17T06:54:03;101409.50;;;22.11
70333;BMP280;57747;43.548;-5.704;2022-07-17T06:56:29;101417.03;;;21.77
70333;BMP280;57747;43.548;-5.704;2022-07-17T06:58:54;101415.09;;;21.90
70333;BMP280;57747;43.548;-5.704;2022-07-17T07:01:20;101422.38;;;21.86
70333;BMP280;57747;43.548;-5.704;2022-07-17T07:03:45;101423.03;;;21.83
70333;BMP280;57747;43.548;-5.704;2022-07-17T07:06:11;101419.16;;;22.08
70333;BMP280;57747;43.548;-5.704;2022-07-17T07:08:36;101418.34;;;22.08
70333;BMP280;57747;43.548;-5.704;2022-07-17T07:11:01;101426.44;;;22.04
70333;BMP280;57747;43.548;-5.704;2022-07-17T07:13:28;101427.88;;;22.26
70333;BMP280;57747;43.548;-5.704;2022-07-17T07:15:53;101426.53;;;22.20
70333;BMP280;57747;43.548;-5.704;2022-07-17T07:18:19;101424.84;;;22.15
70333;BMP280;57747;43.548;-5.704;2022-07-17T07:20:45;101424.72;;;22.52
70333;BMP280;57747;43.548;-5.704;2022-07-17T07:23:10;101420.44;;;22.39
70333;BMP280;57747;43.548;-5.704;2022-07-17T07:25:35;101422.78;;;22.65
70333;BMP280;57747;43.548;-5.704;2022-07-17T07:28:01;101426.13;;;22.74
70333;BMP280;57747;43.548;-5.704;2022-07-17T07:30:29;101423.38;;;22.74
70333;BMP280;57747;43.548;-5.704;2022-07-17T07:32:55;101427.16;;;22.98
70333;BMP280;57747;43.548;-5.704;2022-07-17T07:35:22;101429.31;;;22.76
70333;BMP280;57747;43.548;-5.704;2022-07-17T07:37:48;101426.34;;;22.82
70333;BMP280;57747;43.548;-5.704;2022-07-17T07:40:13;101430.59;;;23.11
70333;BMP280;57747;43.548;-5.704;2022-07-17T07:42:39;101425.13;;;23.11
70333;BMP280;57747;43.548;-5.704;2022-07-17T07:45:04;101422.41;;;23.11
70333;BMP280;57747;43.548;-5.704;2022-07-17T07:47:30;101422.69;;;23.38
70333;BMP280;57747;43.548;-5.704;2022-07-17T07:49:55;101418.81;;;23.23
70333;BMP280;57747;43.548;-5.704;2022-07-17T07:52:20;101421.06;;;23.68
70333;BMP280;57747;43.548;-5.704;2022-07-17T07:54:46;101409.09;;;23.92
70333;BMP280;57747;43.548;-5.704;2022-07-17T07:57:11;101417.97;;;23.70
70333;BMP280;57747;43.548;-5.704;2022-07-17T07:59:37;101420.47;;;23.94
70333;BMP280;57747;43.548;-5.704;2022-07-17T08:02:03;101419.31;;;23.76
70333;BMP280;57747;43.548;-5.704;2022-07-17T08:04:28;101414.56;;;23.92
70333;BMP280;57747;43.548;-5.704;2022-07-17T08:06:54;101421.13;;;24.23
70333;BMP280;57747;43.548;-5.704;2022-07-17T08:09:19;101414.03;;;24.42
70333;BMP280;57747;43.548;-5.704;2022-07-17T08:11:45;101411.03;;;24.50
70333;BMP280;57747;43.548;-5.704;2022-07-17T08:14:15;101408.16;;;24.82
70333;BMP280;57747;43.548;-5.704;2022-07-17T08:16:40;101415.53;;;24.59
70333;BMP280;57747;43.548;-5.704;2022-07-17T08:19:06;101415.50;;;24.78
70333;BMP280;57747;43.548;-5.704;2022-07-17T08:21:34;101421.31;;;25.23
70333;BMP280;57747;43.548;-5.704;2022-07-17T08:23:59;101418.44;;;24.89
70333;BMP280;57747;43.548;-5.704;2022-07-17T08:26:28;101417.69;;;25.15
70333;BMP280;57747;43.548;-5.704;2022-07-17T08:28:57;101422.13;;;25.50
70333;BMP280;57747;43.548;-5.704;2022-07-17T08:31:22;101418.72;;;25.30
70333;BMP280;57747;43.548;-5.704;2022-07-17T08:33:48;101426.09;;;25.26
70333;BMP280;57747;43.548;-5.704;2022-07-17T08:36:18;101419.34;;;24.97
70333;BMP280;57747;43.548;-5.704;2022-07-17T08:38:44;101422.72;;;25.36
70333;BMP280;57747;43.548;-5.704;2022-07-17T08:41:14;101431.22;;;25.27
70333;BMP280;57747;43.548;-5.704;2022-07-17T08:43:41;101430.19;;;25.36
70333;BMP280;57747;43.548;-5.704;2022-07-17T08:46:08;101418.34;;;25.31
70333;BMP280;57747;43.548;-5.704;2022-07-17T08:48:34;101423.69;;;25.74
70333;BMP280;57747;43.548;-5.704;2022-07-17T08:51:01;101422.47;;;25.72
70333;BMP280;57747;43.548;-5.704;2022-07-17T08:53:29;101421.72;;;25.75
70333;BMP280;57747;43.548;-5.704;2022-07-17T08:55:54;101430.59;;;25.38
70333;BMP280;57747;43.548;-5.704;2022-07-17T08:58:21;101421.56;;;25.37
70333;BMP280;57747;43.548;-5.704;2022-07-17T09:00:49;101418.81;;;25.64
70333;BMP280;57747;43.548;-5.704;2022-07-17T09:03:17;101417.84;;;25.49
70333;BMP280;57747;43.548;-5.704;2022-07-17T09:05:43;101411.38;;;25.38
70333;BMP280;57747;43.548;-5.704;2022-07-17T09:08:16;101416.50;;;26.26
70333;BMP280;57747;43.548;-5.704;2022-07-17T09:10:43;101420.50;;;26.33
70333;BMP280;57747;43.548;-5.704;2022-07-17T09:15:46;101414.13;;;26.62
70333;BMP280;57747;43.548;-5.704;2022-07-17T09:18:12;101401.81;;;26.49
70333;BMP280;57747;43.548;-5.704;2022-07-17T09:20:44;101403.81;;;26.56
70333;BMP280;57747;43.548;-5.704;2022-07-17T09:23:10;101397.75;;;26.02
70333;BMP280;57747;43.548;-5.704;2022-07-17T09:25:37;101415.63;;;26.19
70333;BMP280;57747;43.548;-5.704;2022-07-17T09:28:06;101414.97;;;25.68
70333;BMP280;57747;43.548;-5.704;2022-07-17T09:30:32;101410.38;;;26.06
70333;BMP280;57747;43.548;-5.704;2022-07-17T09:32:59;101408.03;;;26.08
70333;BMP280;57747;43.548;-5.704;2022-07-17T09:35:30;101400.38;;;26.21
70333;BMP280;57747;43.548;-5.704;2022-07-17T09:38:01;101409.16;;;26.79
70333;BMP280;57747;43.548;-5.704;2022-07-17T09:40:27;101418.78;;;26.21
70333;BMP280;57747;43.548;-5.704;2022-07-17T09:43:10;101409.41;;;26.63
70333;BMP280;57747;43.548;-5.704;2022-07-17T09:45:36;101416.88;;;26.28
70333;BMP280;57747;43.548;-5.704;2022-07-17T09:48:04;101409.31;;;26.56
70333;BMP280;57747;43.548;-5.704;2022-07-17T09:50:31;101408.94;;;26.57
70333;BMP280;57747;43.548;-5.704;2022-07-17T09:53:00;101412.13;;;27.04
70333;BMP280;57747;43.548;-5.704;2022-07-17T09:55:27;101416.06;;;26.62
70333;BMP280;57747;43.548;-5.704;2022-07-17T09:57:56;101414.28;;;26.80
70333;BMP280;57747;43.548;-5.704;2022-07-17T10:00:21;101410.88;;;26.94
70333;BMP280;57747;43.548;-5.704;2022-07-17T10:02:50;101415.41;;;26.76
70333;BMP280;57747;43.548;-5.704;2022-07-17T10:05:16;101409.56;;;26.77
70333;BMP280;57747;43.548;-5.704;2022-07-17T10:07:45;101411.75;;;26.61
70333;BMP280;57747;43.548;-5.704;2022-07-17T10:10:11;101409.56;;;27.33
70333;BMP280;57747;43.548;-5.704;2022-07-17T10:12:37;101415.38;;;27.20
70333;BMP280;57747;43.548;-5.704;2022-07-17T10:15:06;101408.94;;;26.95
70333;BMP280;57747;43.548;-5.704;2022-07-17T10:17:36;101405.25;;;26.83
70333;BMP280;57747;43.548;-5.704;2022-07-17T10:20:02;101405.88;;;27.80
70333;BMP280;57747;43.548;-5.704;2022-07-17T10:22:39;101409.56;;;27.33
70333;BMP280;57747;43.548;-5.704;2022-07-17T10:25:11;101420.50;;;27.88
70333;BMP280;57747;43.548;-5.704;2022-07-17T10:27:37;101408.13;;;27.60
70333;BMP280;57747;43.548;-5.704;2022-07-17T10:30:10;101409.34;;;27.66
70333;BMP280;57747;43.548;-5.704;2022-07-17T10:32:36;101414.06;;;27.00
70333;BMP280;57747;43.548;-5.704;2022-07-17T10:35:03;101408.22;;;27.75
70333;BMP280;57747;43.548;-5.704;2022-07-17T10:37:33;101405.03;;;27.65
70333;BMP280;57747;43.548;-5.704;2022-07-17T10:45:10;101405.28;;;28.77
70333;BMP280;57747;43.548;-5.704;2022-07-17T10:47:48;101400.94;;;28.58
70333;BMP280;57747;43.548;-5.704;2022-07-17T10:50:16;101395.44;;;28.90
70333;BMP280;57747;43.548;-5.704;2022-07-17T10:52:41;101396.22;;;28.94
70333;BMP280;57747;43.548;-5.704;2022-07-17T10:55:20;101396.53;;;28.10
70333;BMP280;57747;43.548;-5.704;2022-07-17T10:57:47;101404.69;;;27.70
70333;BMP280;57747;43.548;-5.704;2022-07-17T11:00:16;101407.06;;;27.79
70333;BMP280;57747;43.548;-5.704;2022-07-17T11:02:41;101407.91;;;27.98
70333;BMP280;57747;43.548;-5.704;2022-07-17T11:05:08;101404.81;;;28.21
70333;BMP280;57747;43.548;-5.704;2022-07-17T11:07:34;101393.84;;;28.46
70333;BMP280;57747;43.548;-5.704;2022-07-17T11:09:59;101392.66;;;28.22
70333;BMP280;57747;43.548;-5.704;2022-07-17T11:12:31;101399.75;;;28.23
70333;BMP280;57747;43.548;-5.704;2022-07-17T11:15:01;101395.75;;;28.09
70333;BMP280;57747;43.548;-5.704;2022-07-17T11:17:26;101392.28;;;28.77
70333;BMP280;57747;43.548;-5.704;2022-07-17T11:19:52;101391.47;;;28.59
70333;BMP280;57747;43.548;-5.704;2022-07-17T11:22:26;101403.22;;;28.02
70333;BMP280;57747;43.548;-5.704;2022-07-17T11:24:52;101394.94;;;27.98
70333;BMP280;57747;43.548;-5.704;2022-07-17T11:27:25;101395.81;;;28.35
70333;BMP280;57747;43.548;-5.704;2022-07-17T11:29:54;101391.50;;;28.66
70333;BMP280;57747;43.548;-5.704;2022-07-17T11:32:22;101401.28;;;28.24
70333;BMP280;57747;43.548;-5.704;2022-07-17T11:34:48;101387.56;;;28.78
70333;BMP280;57747;43.548;-5.704;2022-07-17T11:37:14;101389.09;;;28.82
70333;BMP280;57747;43.548;-5.704;2022-07-17T11:39:45;101386.34;;;28.86
70333;BMP280;57747;43.548;-5.704;2022-07-17T11:42:15;101382.03;;;28.67
70333;BMP280;57747;43.548;-5.704;2022-07-17T11:44:40;101388.22;;;29.28
70333;BMP280;57747;43.548;-5.704;2022-07-17T11:47:07;101388.59;;;29.48
70333;BMP280;57747;43.548;-5.704;2022-07-17T11:49:33;101389.03;;;29.29
70333;BMP280;57747;43.548;-5.704;2022-07-17T11:52:12;101383.59;;;29.00
70333;BMP280;57747;43.548;-5.704;2022-07-17T11:57:09;101382.38;;;29.08
70333;BMP280;57747;43.548;-5.704;2022-07-17T11:59:37;101385.53;;;29.18
70333;BMP280;57747;43.548;-5.704;2022-07-17T12:02:09;101394.56;;;29.36
70333;BMP280;57747;43.548;-5.704;2022-07-17T12:04:34;101388.25;;;29.25
70333;BMP280;57747;43.548;-5.704;2022-07-17T12:07:02;101392.44;;;29.62
70333;BMP280;57747;43.548;-5.704;2022-07-17T12:09:33;101385.03;;;29.48
70333;BMP280;57747;43.548;-5.704;2022-07-17T12:12:02;101383.50;;;29.32
70333;BMP280;57747;43.548;-5.704;2022-07-17T12:14:30;101390.63;;;29.30
70333;BMP280;57747;43.548;-5.704;2022-07-17T12:16:56;101380.44;;;28.87
70333;BMP280;57747;43.548;-5.704;2022-07-17T12:19:24;101378.00;;;29.29
70333;BMP280;57747;43.548;-5.704;2022-07-17T12:24:23;101375.66;;;29.17
70333;BMP280;57747;43.548;-5.704;2022-07-17T12:26:49;101379.44;;;29.66
70333;BMP280;57747;43.548;-5.704;2022-07-17T12:29:17;101373.03;;;29.83
70333;BMP280;57747;43.548;-5.704;2022-07-17T12:31:45;101380.75;;;29.36
70333;BMP280;57747;43.548;-5.704;2022-07-17T12:34:11;101376.13;;;28.90
70333;BMP280;57747;43.548;-5.704;2022-07-17T12:36:36;101374.09;;;29.12
70333;BMP280;57747;43.548;-5.704;2022-07-17T12:39:02;101364.28;;;29.00
70333;BMP280;57747;43.548;-5.704;2022-07-17T12:41:27;101367.44;;;28.81
70333;BMP280;57747;43.548;-5.704;2022-07-17T12:43:55;101363.91;;;28.77
70333;BMP280;57747;43.548;-5.704;2022-07-17T12:46:20;101367.84;;;28.86
70333;BMP280;57747;43.548;-5.704;2022-07-17T12:48:48;101365.09;;;28.83
70333;BMP280;57747;43.548;-5.704;2022-07-17T12:51:14;101370.19;;;28.81
70333;BMP280;57747;43.548;-5.704;2022-07-17T12:53:40;101366.63;;;29.02
70333;BMP280;57747;43.548;-5.704;2022-07-17T12:56:07;101365.97;;;29.75
70333;BMP280;57747;43.548;-5.704;2022-07-17T12:58:33;101372.56;;;28.61
70333;BMP280;57747;43.548;-5.704;2022-07-17T13:00:58;101367.47;;;28.88
70333;BMP280;57747;43.548;-5.704;2022-07-17T13:03:24;101374.00;;;29.44
70333;BMP280;57747;43.548;-5.704;2022-07-17T13:05:52;101371.31;;;29.23
70333;BMP280;57747;43.548;-5.704;2022-07-17T13:08:21;101372.56;;;28.28
70333;BMP280;57747;43.548;-5.704;2022-07-17T13:10:46;101365.44;;;28.09
70333;BMP280;57747;43.548;-5.704;2022-07-17T13:13:11;101370.19;;;28.30
70333;BMP280;57747;43.548;-5.704;2022-07-17T13:15:37;101370.22;;;28.38
70333;BMP280;57747;43.548;-5.704;2022-07-17T13:18:02;101352.28;;;27.60
70333;BMP280;57747;43.548;-5.704;2022-07-17T13:20:31;101362.16;;;27.68
70333;BMP280;57747;43.548;-5.704;2022-07-17T13:23:02;101368.63;;;27.24
70333;BMP280;57747;43.548;-5.704;2022-07-17T13:25:27;101352.88;;;27.17
70333;BMP280;57747;43.548;-5.704;2022-07-17T13:28:01;101348.66;;;27.41
70333;BMP280;57747;43.548;-5.704;2022-07-17T13:30:29;101358.38;;;28.16
70333;BMP280;57747;43.548;-5.704;2022-07-17T13:32:57;101342.59;;;28.05
70333;BMP280;57747;43.548;-5.704;2022-07-17T13:35:29;101344.63;;;28.23
70333;BMP280;57747;43.548;-5.704;2022-07-17T13:37:57;101337.13;;;28.45
70333;BMP280;57747;43.548;-5.704;2022-07-17T13:40:28;101335.03;;;27.74
70333;BMP280;57747;43.548;-5.704;2022-07-17T13:42:54;101329.06;;;27.54
70333;BMP280;57747;43.548;-5.704;2022-07-17T13:45:20;101335.09;;;27.84
70333;BMP280;57747;43.548;-5.704;2022-07-17T13:47:45;101328.00;;;27.94
70333;BMP280;57747;43.548;-5.704;2022-07-17T13:50:13;101315.38;;;27.82
70333;BMP280;57747;43.548;-5.704;2022-07-17T13:52:45;101319.25;;;27.63
70333;BMP280;57747;43.548;-5.704;2022-07-17T13:55:10;101320.31;;;27.30
70333;BMP280;57747;43.548;-5.704;2022-07-17T13:57:36;101313.47;;;28.04
70333;BMP280;57747;43.548;-5.704;2022-07-17T14:00:02;101314.19;;;27.76
70333;BMP280;57747;43.548;-5.704;2022-07-17T14:02:28;101307.53;;;27.99